Data for 05/06/2007

Time Sea-Level Adjusted Pressure Absolute Pressure Temperature Relative Humidity Dew Point   
(mb) (inHg) (mb) (inHg) (C) (F) (%) (C) (F)
00:05 1018 30.06 848 25.04 5.8 42.5 56 -2.3 27.9
00:10 1018 30.06 848 25.04 5.7 42.3 56 -2.4 27.7
00:15 1019 30.09 848 25.04 5.6 42.1 56 -2.4 27.6
00:20 1019 30.09 848 25.04 5.7 42.2 56 -2.5 27.6
00:25 1018 30.06 848 25.04 5.6 42.2 56 -2.5 27.5
00:30 1019 30.09 848 25.04 5.7 42.2 55 -2.6 27.3
00:35 1019 30.09 848 25.04 5.7 42.3 55 -2.5 27.4
00:40 1019 30.09 848 25.04 5.8 42.4 54 -2.9 26.8
00:45 1019 30.09 848 25.04 5.8 42.4 54 -2.7 27.1
00:50 1019 30.09 848 25.04 5.8 42.5 55 -2.5 27.5
00:55 1019 30.09 848 25.04 5.6 42.1 56 -2.6 27.4
01:00 1019 30.09 848 25.04 5.6 42.1 55 -2.7 27.1
01:05 1019 30.09 848 25.04 5.5 42 55 -2.8 27
01:10 1019 30.09 848 25.04 5.5 41.9 55 -2.7 27.1
01:15 1019 30.09 848 25.04 5.5 41.8 55 -2.9 26.7
01:20 1019 30.09 848 25.04 5.6 42.1 54 -2.9 26.8
01:25 1019 30.09 848 25.04 5.6 42.1 54 -3 26.6
01:30 1019 30.09 848 25.04 5.6 42 54 -3.1 26.4
01:35 1019 30.09 848 25.04 5.5 42 54 -3 26.5
01:40 1019 30.09 848 25.04 5.5 41.8 54 -3.1 26.3
01:45 1019 30.09 848 25.04 5.4 41.7 54 -3.1 26.4
01:50 1019 30.09 848 25.04 5.2 41.3 54 -3.3 26.1
01:55 1019 30.09 848 25.04 5.1 41.1 55 -3.3 26.1
02:00 1019 30.09 848 25.04 4.9 40.9 55 -3.3 26
02:05 1019 30.09 848 25.04 4.8 40.6 55 -3.4 25.8
02:10 1019 30.09 848 25.04 4.7 40.4 56 -3.4 25.9
02:15 1019 30.09 848 25.04 4.5 40.1 56 -3.5 25.7
02:20 1019 30.09 848 25.04 4.4 39.9 56 -3.5 25.6
02:25 1019 30.09 848 25.04 4.3 39.7 57 -3.4 25.8
02:30 1019 30.09 848 25.04 3.7 38.6 61 -3.2 26.2
02:35 1019 30.09 848 25.04 3 37.4 64 -3.2 26.2
02:40 1019 30.09 848 25.04 2.8 37 63 -3.5 25.7
02:45 1019 30.09 848 25.04 3 37.5 61 -3.7 25.4
02:50 1019 30.09 848 25.04 3.2 37.8 60 -3.7 25.3
02:55 1019 30.09 848 25.04 3.1 37.7 61 -3.6 25.5
03:00 1019 30.09 848 25.04 3.1 37.7 61 -3.7 25.3
03:05 1019 30.09 848 25.04 3.2 37.7 61 -3.6 25.5
03:10 1019 30.09 848 25.04 3.1 37.6 62 -3.4 25.9
03:15 1019 30.09 848 25.04 2.8 37.1 63 -3.4 25.8
03:20 1019 30.09 848 25.04 2.8 37.1 64 -3.4 25.9
03:25 1019 30.09 848 25.04 2.9 37.2 64 -3.3 26.1
03:30 1019 30.09 848 25.04 2.6 36.7 67 -2.9 26.8
03:35 1019 30.09 848 25.04 2.2 36 68 -3.1 26.4
03:40 1019 30.09 848 25.04 2.3 36.1 67 -3.2 26.2
03:45 1019 30.09 848 25.04 2.2 36 69 -2.9 26.8
03:50 1019 30.09 848 25.04 2.2 36 68 -3.1 26.5
03:55 1019 30.09 848 25.04 2.4 36.4 67 -3.2 26.3
04:00 1019 30.09 848 25.04 2.7 36.9 64 -3.3 26
04:05 1019 30.09 848 25.04 3.1 37.6 63 -3.3 26
04:10 1019 30.09 848 25.04 3.1 37.6 63 -3.1 26.3
04:15 1019 30.09 848 25.04 3.3 37.9 63 -3.2 26.3
04:20 1019 30.09 848 25.04 3.3 38 64 -2.9 26.9
04:25 1019 30.09 848 25.04 3.3 37.9 65 -2.7 27.1
04:30 1019 30.09 849 25.07 3 37.3 66 -2.8 26.9
04:35 1019 30.09 849 25.07 2.7 36.9 67 -2.7 27.1
04:40 1019 30.09 849 25.07 2.6 36.8 68 -2.7 27.1
04:45 1019 30.09 849 25.07 2.8 37.1 65 -3 26.6
04:50 1019 30.09 848 25.04 3 37.4 65 -3 26.5
04:55 1019 30.09 849 25.07 3.2 37.7 64 -2.9 26.7
05:00 1019 30.09 849 25.07 3.1 37.5 65 -2.9 26.8
05:05 1019 30.09 849 25.07 3.1 37.7 63 -3.1 26.3
05:10 1019 30.09 849 25.07 3.3 38 63 -3.2 26.3
05:15 1019 30.09 849 25.07 3.3 38 63 -3.1 26.4
05:20 1019 30.09 849 25.07 3.4 38.1 62 -3.1 26.4
05:25 1019 30.09 849 25.07 3.4 38.2 63 -3 26.6
05:30 1019 30.09 849 25.07 3.5 38.3 62 -3 26.5
05:35 1019 30.09 849 25.07 3.5 38.4 62 -3 26.6
05:40 1019 30.09 849 25.07 3.5 38.4 62 -3 26.6
05:45 1019 30.09 849 25.07 3.5 38.3 63 -2.9 26.7
05:50 1020 30.12 849 25.07 3.5 38.4 63 -2.9 26.7
05:55 1020 30.12 849 25.07 3.6 38.5 61 -3.1 26.3
06:00 1020 30.12 849 25.07 3.7 38.6 61 -3.1 26.4
06:05 1020 30.12 849 25.07 3.7 38.7 60 -3.3 26
06:10 1020 30.12 849 25.07 3.7 38.6 60 -3.4 25.8
06:15 1020 30.12 849 25.07 3.7 38.6 59 -3.6 25.5
06:20 1020 30.12 849 25.07 3.6 38.4 60 -3.5 25.7
06:25 1020 30.12 849 25.07 3.5 38.3 59 -3.8 25.2
06:30 1020 30.12 849 25.07 3.4 38 59 -3.9 25
06:35 1020 30.12 849 25.07 3.3 38 59 -3.8 25.1
06:40 1020 30.12 849 25.07 3.5 38.2 59 -3.9 25
06:45 1020 30.12 849 25.07 3.9 39 57 -4 24.9
06:50 1020 30.12 849 25.07 3.8 38.8 58 -3.8 25.2
06:55 1020 30.12 849 25.07 3.6 38.4 59 -3.8 25.2
07:00 1020 30.12 849 25.07 3.5 38.3 59 -3.7 25.4
07:05 1020 30.12 849 25.07 3.4 38.1 59 -3.8 25.1
07:10 1020 30.12 849 25.07 3.3 38 59 -3.8 25.1
07:15 1020 30.12 849 25.07 3.4 38.1 59 -3.8 25.1
07:20 1020 30.12 850 25.1 3.3 38 59 -3.8 25.1
07:25 1021 30.15 850 25.1 3.3 37.9 59 -3.9 24.9
07:30 1021 30.15 850 25.1 3.5 38.2 59 -3.9 25
07:35 1021 30.15 850 25.1 3.5 38.3 59 -3.7 25.4
07:40 1021 30.15 850 25.1 3.4 38.2 59 -3.8 25.2
07:45 1021 30.15 850 25.1 3.6 38.4 58 -3.8 25.1
07:50 1021 30.15 850 25.1 3.7 38.7 58 -3.7 25.3
07:55 1021 30.15 850 25.1 3.7 38.6 59 -3.6 25.5
08:00 1021 30.15 850 25.1 3.8 38.9 58 -3.7 25.3
08:05 1021 30.15 850 25.1 3.9 39.1 58 -3.6 25.4
08:10 1021 30.15 850 25.1 4.1 39.3 58 -3.5 25.7
08:15 1021 30.15 850 25.1 4.4 40 57 -3.3 26
08:20 1021 30.15 850 25.1 4.5 40.1 56 -3.5 25.8
08:25 1021 30.15 850 25.1 4.5 40.1 55 -3.7 25.3
08:30 1021 30.15 850 25.1 4.5 40.1 53 -4.3 24.3
08:35 1021 30.15 850 25.1 4.7 40.4 54 -4 24.9
08:40 1021 30.15 850 25.1 5 40.9 52 -4.1 24.6
08:45 1021 30.15 850 25.1 5.6 42 51 -3.7 25.4
08:50 1021 30.15 850 25.1 5.7 42.2 49 -4.2 24.5
08:55 1021 30.15 850 25.1 6.1 43 47 -4.2 24.4
09:00 1021 30.15 850 25.1 6.6 43.8 45 -4.6 23.8
09:05 1021 30.15 850 25.1 7.1 44.7 43 -4.5 23.8
09:10 1021 30.15 850 25.1 7.4 45.3 44 -4.1 24.7
09:15 1021 30.15 850 25.1 7.2 44.9 43 -4.5 23.9
09:20 1021 30.15 850 25.1 7.6 45.7 41 -4.7 23.5
09:25 1021 30.15 850 25.1 7.9 46.2 43 -4 24.8
09:30 1021 30.15 850 25.1 7.6 45.7 42 -4.4 24
09:35 1021 30.15 850 25.1 7.9 46.1 42 -4.2 24.5
09:40 1021 30.15 850 25.1 8.1 46.6 40 -4.8 23.4
09:45 1021 30.15 850 25.1 8.3 47 41 -4.3 24.3
09:50 1021 30.15 850 25.1 7.6 45.7 42 -4.6 23.7
09:55 1021 30.15 850 25.1 7.6 45.6 38 -5.9 21.4
10:00 1021 30.15 850 25.1 7.5 45.5 40 -5.2 22.7
10:05 1021 30.15 850 25.1 7.2 44.9 40 -5.6 21.9
10:10 1021 30.15 850 25.1 7.5 45.5 38 -5.8 21.5
10:15 1021 30.15 850 25.1 8.2 46.8 38 -5.3 22.5
10:20 1021 30.15 850 25.1 8.4 47.1 37 -5.5 22.1
10:25 1021 30.15 850 25.1 8.3 46.9 38 -5 23
10:30 1021 30.15 850 25.1 8.4 47 39 -4.8 23.4
10:35 1021 30.15 850 25.1 7.7 45.8 40 -5 22.9
10:40 1021 30.15 850 25.1 8 46.4 39 -5.1 22.9
10:45 1021 30.15 850 25.1 8.9 48 38 -4.6 23.7
10:50 1021 30.15 850 25.1 9.1 48.3 36 -5.3 22.5
10:55 1021 30.15 850 25.1 9.6 49.2 35 -5.3 22.5
11:00 1021 30.15 850 25.1 8.8 47.9 38 -4.7 23.6
11:05 1021 30.15 850 25.1 8.5 47.3 36 -5.7 21.8
11:10 1021 30.15 850 25.1 9.5 49.1 35 -5.3 22.5
11:15 1021 30.15 850 25.1 9.8 49.6 35 -5.1 22.9
11:20 1021 30.15 850 25.1 9 48.2 35 -5.8 21.6
11:25 1021 30.15 850 25.1 9.2 48.5 34 -5.7 21.8
11:30 1021 30.15 850 25.1 9.1 48.4 33 -6.3 20.7
11:35 1021 30.15 850 25.1 9.2 48.5 32 -6.5 20.3
11:40 1021 30.15 850 25.1 9.9 49.8 32 -6.1 21
11:45 1021 30.15 850 25.1 10.5 50.9 31 -6 21.2
11:50 1021 30.15 850 25.1 10.2 50.4 32 -5.7 21.7
11:55 1021 30.15 850 25.1 10.3 50.5 32 -5.8 21.6
12:00 1021 30.15 850 25.1 10.5 50.9 33 -5.1 22.9
12:05 1021 30.15 850 25.1 10.6 51.2 33 -5.1 22.8
12:10 1021 30.15 850 25.1 10.2 50.4 32 -5.6 22
12:15 1021 30.15 850 25.1 10.1 50.2 33 -5.6 22
12:20 1021 30.15 850 25.1 9.8 49.6 34 -5.4 22.2
12:25 1021 30.15 850 25.1 10.2 50.3 33 -5.3 22.5
12:30 1021 30.15 850 25.1 10.7 51.2 31 -5.5 22
12:35 1021 30.15 850 25.1 10.6 51.1 32 -5.3 22.5
12:40 1021 30.15 850 25.1 10.9 51.5 32 -5.2 22.6
12:45 1021 30.15 850 25.1 10.9 51.5 32 -5.3 22.4
12:50 1021 30.15 850 25.1 11.5 52.6 31 -4.9 23.3
12:55 1021 30.15 850 25.1 11.7 53 30 -5.1 22.8
13:00 1021 30.15 850 25.1 10.6 51 32 -5.4 22.3
13:05 1021 30.15 850 25.1 11.3 52.3 30 -5.5 22.1
13:10 1021 30.15 850 25.1 11.7 53.1 29 -5.5 22.1
13:15 1021 30.15 850 25.1 11.8 53.3 30 -5 23
13:20 1021 30.15 850 25.1 12 53.6 29 -5.4 22.3
13:25 1021 30.15 850 25.1 11.8 53.2 30 -5 23
13:30 1020 30.12 850 25.1 11.9 53.5 31 -4.8 23.4
13:35 1020 30.12 850 25.1 12.4 54.4 29 -5.2 22.7
13:40 1020 30.12 849 25.07 11.9 53.5 31 -4.7 23.6
13:45 1020 30.12 849 25.07 11.5 52.6 31 -4.9 23.1
13:50 1020 30.12 849 25.07 11.4 52.4 32 -4.9 23.3
13:55 1020 30.12 849 25.07 11.2 52.1 31 -5.2 22.6
14:00 1020 30.12 849 25.07 11 51.8 32 -5.2 22.7
14:05 1020 30.12 849 25.07 12.3 54.1 29 -5.3 22.4
14:10 1020 30.12 849 25.07 12.5 54.4 29 -5.1 22.8
14:15 1020 30.12 849 25.07 12.2 54 29 -5.2 22.6
14:20 1020 30.12 849 25.07 11.8 53.2 30 -5.1 22.8
14:25 1020 30.12 849 25.07 12 53.6 30 -5.1 22.8
14:30 1020 30.12 849 25.07 13.1 55.5 28 -5.1 22.7
14:35 1020 30.12 849 25.07 12.6 54.7 30 -4.6 23.6
14:40 1020 30.12 849 25.07 12.7 54.8 30 -4.6 23.7
14:45 1020 30.12 849 25.07 13 55.3 29 -4.6 23.7
14:50 1020 30.12 849 25.07 13.4 56 28 -4.8 23.3
14:55 1020 30.12 849 25.07 13.1 55.5 28 -5 23
15:00 1020 30.12 849 25.07 13.6 56.4 27 -5.2 22.7
15:05 1020 30.12 849 25.07 13.8 56.8 27 -4.8 23.3
15:10 1020 30.12 849 25.07 13.2 55.7 28 -4.8 23.4
15:15 1020 30.12 849 25.07 13.1 55.7 28 -5.1 22.7
15:20 1020 30.12 849 25.07 13.6 56.5 27 -5 22.9
15:25 1020 30.12 849 25.07 13.9 56.9 28 -4.4 24
15:30 1020 30.12 849 25.07 14 57.1 27 -4.8 23.4
15:35 1020 30.12 849 25.07 14 57.2 27 -4.8 23.4
15:40 1020 30.12 849 25.07 13.9 57.1 27 -4.5 23.9
15:45 1020 30.12 849 25.07 14.3 57.8 27 -4.5 23.8
15:50 1020 30.12 849 25.07 14.3 57.7 26 -4.9 23.2
15:55 1020 30.12 849 25.07 14 57.2 27 -4.5 23.9
16:00 1020 30.12 849 25.07 13.7 56.6 26 -5.2 22.7
16:05 1020 30.12 849 25.07 14.5 58 27 -4.4 24.1
16:10 1020 30.12 849 25.07 14.9 58.7 25 -4.8 23.4
16:15 1020 30.12 849 25.07 14.6 58.4 26 -4.7 23.5
16:20 1020 30.12 849 25.07 13.6 56.5 28 -4.6 23.7
16:25 1020 30.12 849 25.07 14.4 57.9 26 -4.7 23.6
16:30 1020 30.12 849 25.07 14.6 58.2 26 -4.7 23.5
16:35 1020 30.12 849 25.07 14.1 57.4 26 -4.9 23.3
16:40 1020 30.12 849 25.07 14.1 57.4 26 -4.9 23.2
16:45 1020 30.12 849 25.07 14.1 57.3 27 -4.8 23.4
16:50 1020 30.12 849 25.07 14.2 57.6 26 -4.9 23.1
16:55 1020 30.12 849 25.07 15.4 59.6 24 -5 23
17:00 1020 30.12 849 25.07 15.5 60 25 -4.4 24.2
17:05 1020 30.12 849 25.07 14.9 58.9 25 -4.6 23.7
17:10 1020 30.12 849 25.07 15.2 59.3 25 -4.7 23.5
17:15 1020 30.12 849 25.07 15.5 59.9 25 -4.3 24.3
17:20 1020 30.12 849 25.07 15.2 59.3 25 -4.5 23.9
17:25 1020 30.12 849 25.07 15.3 59.5 26 -3.9 24.9
17:30 1020 30.12 849 25.07 15.3 59.5 25 -4.7 23.6
17:35 1020 30.12 849 25.07 15.2 59.4 25 -4.6 23.6
17:40 1020 30.12 849 25.07 15.5 60 24 -4.8 23.3
17:45 1020 30.12 849 25.07 15.8 60.4 25 -4.2 24.4
17:50 1020 30.12 849 25.07 15.1 59.2 25 -4.6 23.8
17:55 1020 30.12 849 25.07 15.3 59.6 25 -4.5 24
18:00 1020 30.12 849 25.07 15.1 59.2 26 -4.1 24.6
18:05 1020 30.12 849 25.07 14.8 58.6 26 -4.6 23.8
18:10 1020 30.12 849 25.07 15.3 59.6 25 -4.6 23.8
18:15 1020 30.12 849 25.07 14.7 58.4 27 -4.2 24.4
18:20 1020 30.12 849 25.07 14.6 58.2 26 -4.5 23.9
18:25 1020 30.12 849 25.07 15 58.9 27 -3.9 25
18:30 1020 30.12 849 25.07 15.1 59.1 25 -4.5 23.9
18:35 1020 30.12 849 25.07 15.2 59.3 26 -4.2 24.4
18:40 1020 30.12 849 25.07 15 59.1 26 -4 24.7
18:45 1020 30.12 849 25.07 15.1 59.2 25 -4.4 24
18:50 1020 30.12 849 25.07 14.7 58.4 27 -3.9 24.9
18:55 1020 30.12 849 25.07 14 57.3 28 -4.1 24.5
19:00 1020 30.12 849 25.07 13.7 56.6 29 -4.2 24.5
19:05 1020 30.12 849 25.07 13.4 56.1 28 -4.5 23.9
19:10 1020 30.12 849 25.07 13.3 55.9 29 -4.3 24.3
19:15 1020 30.12 849 25.07 13.4 56.1 29 -4.1 24.6
19:20 1020 30.12 849 25.07 13.8 56.9 28 -4.2 24.5
19:25 1020 30.12 849 25.07 13.9 57 28 -4.2 24.5
19:30 1020 30.12 849 25.07 13.8 56.9 28 -4.1 24.6
19:35 1020 30.12 849 25.07 13.5 56.4 30 -3.9 25.1
19:40 1020 30.12 849 25.07 13.1 55.6 30 -4 24.8
19:45 1020 30.12 849 25.07 13.1 55.6 30 -4.1 24.6
19:50 1020 30.12 849 25.07 13 55.4 30 -4.2 24.5
19:55 1020 30.12 849 25.07 13.1 55.5 30 -4 24.7
20:00 1020 30.12 849 25.07 13 55.3 30 -4.1 24.7
20:05 1020 30.12 849 25.07 12.9 55.2 30 -4.1 24.6
20:10 1020 30.12 849 25.07 12.9 55.2 30 -4 24.8
20:15 1020 30.12 849 25.07 12.8 55 31 -4 24.8
20:20 1020 30.12 849 25.07 12.7 54.9 31 -3.9 25.1
20:25 1020 30.12 849 25.07 12.6 54.7 32 -3.7 25.3
20:30 1020 30.12 849 25.07 12.3 54.2 33 -3.5 25.8
20:35 1020 30.12 849 25.07 12 53.7 34 -3.3 26.1
20:40 1020 30.12 849 25.07 11.9 53.4 35 -3.2 26.3
20:45 1020 30.12 849 25.07 11.7 53.1 35 -3.2 26.2
20:50 1020 30.12 849 25.07 11.5 52.7 38 -2.4 27.7
20:55 1020 30.12 849 25.07 10.8 51.5 45 -0.5 31.1
21:00 1020 30.12 849 25.07 10 50 47 -0.8 30.5
21:05 1020 30.12 849 25.07 9.5 49.2 48 -0.9 30.4
21:10 1020 30.12 849 25.07 9.3 48.7 48 -1.1 30
21:15 1020 30.12 849 25.07 9.1 48.4 48 -1.2 29.9
21:20 1020 30.12 849 25.07 8.9 48.1 50 -1 30.2
21:25 1020 30.12 850 25.1 8.8 47.8 50 -1.1 30.1
21:30 1020 30.12 850 25.1 8.7 47.6 50 -1 30.2
21:35 1020 30.12 850 25.1 8.7 47.6 50 -1 30.2
21:40 1021 30.15 850 25.1 8.7 47.6 50 -1 30.1
21:45 1021 30.15 850 25.1 8.6 47.5 50 -1.3 29.7
21:50 1021 30.15 850 25.1 8.4 47.1 51 -1.2 29.8
21:55 1021 30.15 850 25.1 8.2 46.8 51 -1.3 29.7
22:00 1021 30.15 850 25.1 8.2 46.7 51 -1.4 29.5
22:05 1021 30.15 850 25.1 8 46.5 52 -1.2 29.8
22:10 1021 30.15 850 25.1 7.8 46 53 -1.1 30.1
22:15 1021 30.15 850 25.1 7.6 45.7 52 -1.6 29.1
22:20 1021 30.15 850 25.1 8.1 46.6 49 -1.9 28.6
22:25 1021 30.15 850 25.1 8.3 47 49 -1.6 29.1
22:30 1021 30.15 850 25.1 8.3 47 48 -1.9 28.6
22:35 1021 30.15 850 25.1 8.5 47.3 47 -2.3 27.9
22:40 1021 30.15 850 25.1 8.4 47.2 48 -1.9 28.5
22:45 1021 30.15 850 25.1 8.2 46.7 49 -1.8 28.8
22:50 1021 30.15 850 25.1 8 46.4 49 -2.1 28.3
22:55 1021 30.15 850 25.1 8.2 46.7 48 -2.3 27.9
23:00 1021 30.15 850 25.1 8.3 46.9 47 -2.3 27.9
23:05 1021 30.15 850 25.1 8.2 46.8 48 -2.1 28.3
23:10 1021 30.15 850 25.1 7.9 46.3 49 -2 28.4
23:15 1021 30.15 851 25.13 7.9 46.2 49 -2.2 28.1
23:20 1021 30.15 851 25.13 7.8 46.1 50 -2 28.4
23:25 1021 30.15 851 25.13 7.8 46.1 48 -2.3 27.8
23:30 1021 30.15 851 25.13 8.1 46.5 47 -2.4 27.6
23:35 1022 30.18 851 25.13 8 46.4 48 -2.2 28.1
23:40 1021 30.15 851 25.13 8.1 46.5 47 -2.5 27.4
23:45 1021 30.15 851 25.13 8.2 46.7 47 -2.5 27.4
23:50 1021 30.15 851 25.13 8.3 46.9 46 -2.5 27.5
23:55 1021 30.15 851 25.13 8.2 46.8 48 -2.1 28.2
24:00 1021 30.15 851 25.13 7.8 46 51 -1.7 28.9